Time;durP1;ratioP1;P1;durP2;ratioP2;P2;SDS_P1;SDS_P2;PMS_P1;PMS_P2;Temp;Humidity;BMP_temperature;BMP_pressure;BME280_temperature;BME280_humidity;BME280_pressure;Samples;Min_cycle;Max_cycle;Signal;HPM_P1;HPM_P2
2023/06/07 00:00:20;;;;;;;5.63;3.45;;;15.80;58.30;;;;;;5072860;28;20544;-78
2023/06/07 00:02:45;;;;;;;4.75;3.13;;;15.70;58.60;;;;;;5073094;28;20036;-77
2023/06/07 00:05:15;;;;;;;4.13;3.45;;;15.70;58.80;;;;;;5072463;28;20523;-79
2023/06/07 00:07:42;;;;;;;4.65;3.22;;;15.70;58.80;;;;;;5072743;28;20099;-78
2023/06/07 00:10:08;;;;;;;3.42;2.88;;;15.70;58.90;;;;;;5071579;28;20029;-74
2023/06/07 00:12:33;;;;;;;6.13;3.38;;;15.60;58.80;;;;;;5072752;28;20048;-75
2023/06/07 00:15:02;;;;;;;3.28;2.85;;;15.60;59.00;;;;;;5072723;28;20377;-77
2023/06/07 00:17:28;;;;;;;4.15;2.78;;;15.60;58.90;;;;;;5072843;28;20020;-74
2023/06/07 00:19:54;;;;;;;4.50;3.45;;;15.70;59.00;;;;;;5072671;28;20025;-71
2023/06/07 00:22:20;;;;;;;3.40;3.10;;;15.70;58.90;;;;;;5072819;28;20107;-72
2023/06/07 00:24:46;;;;;;;4.15;2.70;;;15.60;58.70;;;;;;5072628;28;20421;-72
2023/06/07 00:27:11;;;;;;;3.97;2.85;;;15.60;58.80;;;;;;5072727;28;20017;-71
2023/06/07 00:29:37;;;;;;;3.72;2.75;;;15.60;58.80;;;;;;5072623;28;20024;-71
2023/06/07 00:32:02;;;;;;;4.13;3.15;;;15.60;59.00;;;;;;5072611;28;20044;-71
2023/06/07 00:34:28;;;;;;;4.50;2.92;;;15.50;59.20;;;;;;5072619;28;20021;-71
2023/06/07 00:36:54;;;;;;;4.85;3.58;;;15.40;59.40;;;;;;5072706;28;20037;-70
2023/06/07 00:39:20;;;;;;;4.18;3.20;;;15.30;60.20;;;;;;5072219;28;20044;-72
2023/06/07 00:41:45;;;;;;;3.33;2.60;;;15.20;60.40;;;;;;5072544;28;20362;-70
2023/06/07 00:44:12;;;;;;;4.43;3.22;;;15.10;60.70;;;;;;5072484;28;20032;-70
2023/06/07 00:46:38;;;;;;;3.42;2.90;;;15.00;61.00;;;;;;5072515;28;20028;-70
2023/06/07 00:49:04;;;;;;;4.90;3.28;;;15.10;61.10;;;;;;5072506;28;20020;-70
2023/06/07 00:51:30;;;;;;;3.25;2.90;;;15.00;61.00;;;;;;5072477;28;20121;-70
2023/06/07 00:53:59;;;;;;;5.07;3.50;;;15.10;60.90;;;;;;5073072;28;20029;-71
2023/06/07 00:56:26;;;;;;;3.28;2.83;;;15.10;61.00;;;;;;5076156;28;20070;-70
2023/06/07 00:58:52;;;;;;;4.30;3.25;;;15.00;60.90;;;;;;5075140;28;20028;-71
2023/06/07 01:01:17;;;;;;;5.55;3.60;;;15.10;61.00;;;;;;5075828;28;20036;-72
2023/06/07 01:03:44;;;;;;;4.18;3.42;;;15.00;61.10;;;;;;5076104;28;20032;-71
2023/06/07 01:06:10;;;;;;;3.13;2.83;;;15.00;61.30;;;;;;5076237;28;20028;-71
2023/06/07 01:08:37;;;;;;;3.58;3.10;;;14.90;61.20;;;;;;5075888;28;20359;-71
2023/06/07 01:11:03;;;;;;;4.35;3.33;;;14.90;61.60;;;;;;5075931;28;20023;-71
2023/06/07 01:13:30;;;;;;;5.90;3.50;;;14.80;62.00;;;;;;5075805;28;20482;-71
2023/06/07 01:15:56;;;;;;;4.25;3.50;;;14.80;62.10;;;;;;5075795;28;20017;-71
2023/06/07 01:18:25;;;;;;;5.40;3.20;;;14.80;62.10;;;;;;5075781;28;20031;-71
2023/06/07 01:20:56;;;;;;;3.85;3.45;;;14.80;62.10;;;;;;5075664;28;20428;-71
2023/06/07 01:23:41;;;;;;;6.03;3.33;;;14.70;62.40;;;;;;5075531;28;20090;-70
2023/06/07 01:26:07;;;;;;;5.28;3.03;;;14.60;62.50;;;;;;5075673;28;20103;-70
2023/06/07 01:28:34;;;;;;;5.75;3.95;;;14.50;63.00;;;;;;5075717;28;20115;-71
2023/06/07 01:31:01;;;;;;;4.38;3.30;;;14.40;63.50;;;;;;5075493;28;20036;-71
2023/06/07 01:33:28;;;;;;;4.32;3.13;;;14.30;64.00;;;;;;5075658;28;20164;-70
2023/06/07 01:35:55;;;;;;;6.75;3.15;;;14.20;64.20;;;;;;5075727;28;20389;-70
2023/06/07 01:38:22;;;;;;;4.88;3.00;;;14.10;65.00;;;;;;5075359;28;20044;-71
2023/06/07 01:40:49;;;;;;;3.53;3.17;;;14.00;65.10;;;;;;5075510;28;20071;-72
2023/06/07 01:43:15;;;;;;;4.45;3.30;;;13.90;66.20;;;;;;5075104;28;20032;-70
2023/06/07 01:45:43;;;;;;;3.95;3.17;;;13.80;66.10;;;;;;5075212;28;20024;-70
2023/06/07 01:48:09;;;;;;;4.82;3.47;;;13.70;66.60;;;;;;5075254;28;20150;-73
2023/06/07 01:50:35;;;;;;;5.10;3.33;;;13.50;67.50;;;;;;5075198;28;20028;-73
2023/06/07 01:53:01;;;;;;;3.95;3.55;;;13.30;68.30;;;;;;5075017;28;20408;-73
2023/06/07 01:55:27;;;;;;;5.03;3.60;;;13.20;68.50;;;;;;5075162;28;20028;-73
2023/06/07 01:58:01;;;;;;;5.97;3.80;;;13.20;68.70;;;;;;5073778;28;20025;-72
2023/06/07 02:00:34;;;;;;;5.43;3.75;;;13.20;68.80;;;;;;5074870;28;20031;-73
2023/06/07 02:03:06;;;;;;;4.82;3.80;;;13.30;68.80;;;;;;5075076;28;20033;-72
2023/06/07 02:05:36;;;;;;;4.88;3.70;;;13.30;68.80;;;;;;5074493;28;20036;-73
2023/06/07 02:08:11;;;;;;;4.65;3.10;;;13.20;68.90;;;;;;5074959;28;20075;-76
2023/06/07 02:10:38;;;;;;;3.92;3.53;;;13.40;68.60;;;;;;5074926;28;20209;-79
2023/06/07 02:13:04;;;;;;;6.80;3.85;;;13.50;68.10;;;;;;5074894;28;20112;-79
2023/06/07 02:15:30;;;;;;;3.75;3.10;;;13.60;67.40;;;;;;5074704;28;20028;-78
2023/06/07 02:18:01;;;;;;;3.50;2.85;;;13.70;66.80;;;;;;5074593;28;20024;-79
2023/06/07 02:20:33;;;;;;;4.50;2.80;;;13.80;66.50;;;;;;5074597;28;20059;-81
2023/06/07 02:22:59;;;;;;;3.10;2.80;;;13.90;66.00;;;;;;5074518;28;20385;-74
2023/06/07 02:25:24;;;;;;;4.70;2.92;;;14.00;65.50;;;;;;5074502;28;20032;-73
2023/06/07 02:27:50;;;;;;;6.75;3.15;;;14.00;65.40;;;;;;5074469;28;20469;-72
2023/06/07 02:30:16;;;;;;;4.03;3.63;;;14.00;65.30;;;;;;5074415;28;20025;-73
2023/06/07 02:32:48;;;;;;;7.85;3.95;;;13.80;65.70;;;;;;5074216;28;20071;-74
2023/06/07 02:35:15;;;;;;;6.18;3.88;;;13.70;66.40;;;;;;5074611;28;20079;-72
2023/06/07 02:37:41;;;;;;;4.40;3.58;;;13.60;67.00;;;;;;5074364;28;20059;-72
2023/06/07 02:40:10;;;;;;;4.40;3.60;;;13.50;67.40;;;;;;5074482;28;20090;-72
2023/06/07 02:42:36;;;;;;;4.95;4.10;;;13.50;67.60;;;;;;5074007;28;20500;-72
2023/06/07 02:45:03;;;;;;;4.43;3.65;;;13.40;68.10;;;;;;5074160;28;20372;-72
2023/06/07 02:47:31;;;;;;;4.75;4.15;;;13.30;68.30;;;;;;5074069;28;20530;-72
2023/06/07 02:49:57;;;;;;;6.60;3.78;;;13.30;68.40;;;;;;5074111;28;20028;-72
2023/06/07 02:52:25;;;;;;;5.95;4.05;;;13.30;68.40;;;;;;5073793;28;20035;-72
2023/06/07 02:54:51;;;;;;;5.45;3.83;;;13.30;68.30;;;;;;5073824;28;20434;-72
2023/06/07 02:57:16;;;;;;;7.22;3.97;;;13.40;68.20;;;;;;5073761;28;20104;-72
2023/06/07 02:59:42;;;;;;;6.50;3.85;;;13.50;67.90;;;;;;5073749;28;20476;-71
2023/06/07 03:02:07;;;;;;;4.35;3.47;;;13.50;67.80;;;;;;5073751;28;20028;-71
2023/06/07 03:04:33;;;;;;;3.70;3.33;;;13.40;67.80;;;;;;5073803;28;20028;-71
2023/06/07 03:07:00;;;;;;;4.53;4.10;;;13.40;68.40;;;;;;5073695;28;20031;-72
2023/06/07 03:09:25;;;;;;;5.05;4.25;;;13.40;68.10;;;;;;5073667;28;20440;-72
2023/06/07 03:11:51;;;;;;;5.43;3.80;;;13.50;68.00;;;;;;5073617;28;20116;-72
2023/06/07 03:14:18;;;;;;;5.60;3.92;;;13.50;67.60;;;;;;5073563;28;20535;-72
2023/06/07 03:16:45;;;;;;;4.30;3.67;;;13.40;67.50;;;;;;5073723;28;20050;-72
2023/06/07 03:19:11;;;;;;;4.75;3.40;;;13.40;67.70;;;;;;5072890;28;20028;-72
2023/06/07 03:21:38;;;;;;;6.25;4.03;;;13.40;68.50;;;;;;5073523;28;20044;-72
2023/06/07 03:24:04;;;;;;;5.13;3.83;;;13.40;67.90;;;;;;5073397;28;20028;-71
2023/06/07 03:26:31;;;;;;;5.47;3.78;;;13.30;68.30;;;;;;5073385;28;20029;-72
2023/06/07 03:28:56;;;;;;;5.80;3.67;;;13.00;69.40;;;;;;5073380;28;20019;-72
2023/06/07 03:31:23;;;;;;;4.63;3.75;;;13.10;69.60;;;;;;5071953;28;20024;-72
2023/06/07 03:33:48;;;;;;;5.38;3.88;;;13.10;69.60;;;;;;5073126;28;20032;-72
2023/06/07 03:36:20;;;;;;;4.70;3.75;;;13.10;69.60;;;;;;5073303;28;20028;-72
2023/06/07 03:38:46;;;;;;;6.47;3.85;;;13.00;69.80;;;;;;5073139;28;20066;-72
2023/06/07 03:41:12;;;;;;;4.93;4.00;;;13.00;69.80;;;;;;5073065;28;20448;-72
2023/06/07 03:43:37;;;;;;;5.15;3.97;;;13.00;69.70;;;;;;5073148;28;20427;-78
2023/06/07 03:46:03;;;;;;;5.53;4.28;;;13.00;69.90;;;;;;5073149;28;20082;-79
2023/06/07 03:48:28;;;;;;;4.22;3.83;;;13.00;70.00;;;;;;5073032;28;20020;-77
2023/06/07 03:50:54;;;;;;;5.07;3.90;;;13.00;69.90;;;;;;5072896;28;20040;-80
2023/06/07 03:53:19;;;;;;;6.50;3.92;;;13.00;70.00;;;;;;5072887;28;20036;-83
2023/06/07 03:55:47;;;;;;;5.47;4.15;;;13.00;70.10;;;;;;5072756;28;20025;-83
2023/06/07 03:58:13;;;;;;;6.07;3.67;;;12.90;70.40;;;;;;5072870;28;20021;-81
2023/06/07 04:00:39;;;;;;;4.28;3.50;;;13.00;70.70;;;;;;5072753;28;20153;-72
2023/06/07 04:03:04;;;;;;;5.43;4.00;;;13.00;70.40;;;;;;5072814;28;20021;-73
2023/06/07 04:05:31;;;;;;;3.67;3.38;;;12.90;70.60;;;;;;5073130;28;20354;-72
2023/06/07 04:07:59;;;;;;;5.50;3.67;;;12.90;71.10;;;;;;5072935;28;20028;-74
2023/06/07 04:10:25;;;;;;;6.03;4.20;;;12.90;71.20;;;;;;5072897;28;20017;-72
2023/06/07 04:12:50;;;;;;;6.15;3.72;;;13.00;71.20;;;;;;5072613;28;20108;-72
2023/06/07 04:15:16;;;;;;;5.45;3.50;;;13.00;71.00;;;;;;5072980;28;20036;-71
2023/06/07 04:17:41;;;;;;;8.15;3.88;;;13.10;70.70;;;;;;5072757;28;20035;-72
2023/06/07 04:20:08;;;;;;;6.00;3.55;;;13.20;70.50;;;;;;5072355;28;20103;-73
2023/06/07 04:22:35;;;;;;;4.20;3.75;;;13.20;70.40;;;;;;5072429;28;20051;-72
2023/06/07 04:25:02;;;;;;;5.20;3.75;;;13.20;70.20;;;;;;5072868;28;20023;-72
2023/06/07 04:27:29;;;;;;;4.57;3.40;;;13.20;70.20;;;;;;5072644;28;20362;-72
2023/06/07 04:29:55;;;;;;;6.32;4.07;;;13.10;70.50;;;;;;5075019;28;20511;-75
2023/06/07 04:32:21;;;;;;;4.97;3.38;;;13.10;70.50;;;;;;5077238;28;20033;-72
2023/06/07 04:34:47;;;;;;;4.45;3.45;;;13.30;70.60;;;;;;5077664;28;20036;-72
2023/06/07 04:37:13;;;;;;;5.93;3.95;;;13.30;70.10;;;;;;5082260;28;20080;-73
2023/06/07 04:39:40;;;;;;;3.75;3.20;;;13.40;70.20;;;;;;5076387;28;20055;-72
2023/06/07 04:42:07;;;;;;;5.53;3.70;;;13.40;70.20;;;;;;5076208;28;20036;-72
2023/06/07 04:44:32;;;;;;;7.10;4.03;;;13.50;70.10;;;;;;5076217;28;20487;-72
2023/06/07 04:46:59;;;;;;;5.10;3.45;;;13.60;69.70;;;;;;5076401;28;20025;-72
2023/06/07 04:49:25;;;;;;;3.63;3.25;;;13.70;69.40;;;;;;5076269;28;20028;-72
2023/06/07 04:51:52;;;;;;;3.97;3.25;;;13.80;69.20;;;;;;5076245;28;20051;-71
2023/06/07 04:54:19;;;;;;;3.75;3.30;;;14.00;68.70;;;;;;5076126;28;20025;-71
2023/06/07 04:56:45;;;;;;;3.88;3.25;;;14.10;68.30;;;;;;5076176;28;20020;-72
2023/06/07 04:59:10;;;;;;;7.25;3.70;;;14.20;67.80;;;;;;5075946;28;20042;-72
2023/06/07 05:01:36;;;;;;;6.10;3.35;;;14.20;67.50;;;;;;5075926;28;20064;-71
2023/06/07 05:04:02;;;;;;;4.22;3.70;;;14.30;67.20;;;;;;5076072;28;20020;-72
2023/06/07 05:06:29;;;;;;;4.22;3.55;;;14.30;67.50;;;;;;5075939;28;20085;-72
2023/06/07 05:08:55;;;;;;;6.45;3.28;;;14.30;67.60;;;;;;5075912;28;20035;-71
2023/06/07 05:11:21;;;;;;;5.57;3.40;;;14.40;67.60;;;;;;5074495;28;20081;-72
2023/06/07 05:13:47;;;;;;;8.38;3.53;;;14.50;67.40;;;;;;5075817;28;20016;-72
2023/06/07 05:16:15;;;;;;;4.38;3.33;;;14.60;67.30;;;;;;5075862;28;20311;-71
2023/06/07 05:18:46;;;;;;;5.32;3.05;;;14.60;67.20;;;;;;5074592;28;20114;-83
2023/06/07 05:21:13;;;;;;;5.75;3.00;;;14.80;67.00;;;;;;5075623;28;20032;-83
2023/06/07 05:23:39;;;;;;;8.38;3.47;;;14.90;66.70;;;;;;5075663;28;20044;-83
2023/06/07 05:26:05;;;;;;;7.57;3.10;;;14.90;67.40;;;;;;5075941;28;20050;-83
2023/06/07 05:28:30;;;;;;;5.28;3.05;;;15.00;66.50;;;;;;5075696;28;20472;-81
2023/06/07 05:30:56;;;;;;;3.35;2.47;;;15.10;66.50;;;;;;5074247;28;20112;-85
2023/06/07 05:33:22;;;;;;;3.10;2.40;;;15.10;66.30;;;;;;5075430;28;20045;-80
2023/06/07 05:35:47;;;;;;;4.68;2.78;;;15.30;66.30;;;;;;5075251;28;20099;-83
2023/06/07 05:38:13;;;;;;;3.20;2.45;;;15.50;65.90;;;;;;5075124;28;20040;-84
2023/06/07 05:40:39;;;;;;;2.60;2.40;;;15.60;65.30;;;;;;5074001;28;20024;-78
2023/06/07 05:43:06;;;;;;;2.65;2.33;;;15.80;65.00;;;;;;5074962;28;20054;-79
2023/06/07 05:45:31;;;;;;;3.17;2.60;;;15.90;64.60;;;;;;5074903;28;20096;-76
2023/06/07 05:47:57;;;;;;;3.75;2.30;;;16.10;64.10;;;;;;5075181;28;20115;-78
2023/06/07 05:50:23;;;;;;;5.03;3.22;;;16.30;63.50;;;;;;5073711;28;20325;-72
2023/06/07 05:52:56;;;;;;;3.33;2.95;;;16.50;62.90;;;;;;5075099;28;20029;-72
2023/06/07 05:55:25;;;;;;;7.63;3.10;;;16.60;62.20;;;;;;5074784;28;20040;-72
2023/06/07 05:57:52;;;;;;;3.15;2.50;;;16.80;61.40;;;;;;5074901;28;20017;-72
2023/06/07 06:00:18;;;;;;;2.72;2.50;;;16.90;60.20;;;;;;5074514;28;20489;-73
2023/06/07 06:02:46;;;;;;;3.42;2.33;;;17.00;59.40;;;;;;5074571;28;20032;-73
2023/06/07 06:05:15;;;;;;;4.78;2.80;;;16.90;59.30;;;;;;5074652;28;20023;-81
2023/06/07 06:07:42;;;;;;;3.58;2.72;;;16.90;59.00;;;;;;5074076;28;20393;-82
2023/06/07 06:10:07;;;;;;;5.22;2.85;;;17.00;58.70;;;;;;5074713;28;20024;-82
2023/06/07 06:12:33;;;;;;;4.28;2.63;;;17.20;58.30;;;;;;5073212;28;20122;-82
2023/06/07 06:15:00;;;;;;;2.70;2.22;;;17.30;57.90;;;;;;5074600;28;20027;-82
2023/06/07 06:17:25;;;;;;;5.43;2.58;;;17.50;57.40;;;;;;5074526;28;20493;-83
2023/06/07 06:19:51;;;;;;;3.95;2.90;;;17.60;57.00;;;;;;5074487;28;20031;-72
2023/06/07 06:22:16;;;;;;;4.05;3.00;;;17.70;56.80;;;;;;5073076;28;20040;-72
2023/06/07 06:24:42;;;;;;;5.57;2.78;;;17.80;56.20;;;;;;5074149;28;20040;-72
2023/06/07 06:27:09;;;;;;;9.25;3.38;;;17.90;56.00;;;;;;5074274;28;20024;-72
2023/06/07 06:29:34;;;;;;;3.03;2.50;;;18.00;55.50;;;;;;5074207;28;20043;-77
2023/06/07 06:32:00;;;;;;;4.35;3.42;;;18.10;55.30;;;;;;5074196;28;20497;-72
2023/06/07 06:34:28;;;;;;;7.13;3.70;;;18.20;55.00;;;;;;5073850;28;20029;-72
2023/06/07 06:36:53;;;;;;;7.20;3.63;;;18.30;55.60;;;;;;5073879;28;20031;-81
2023/06/07 06:39:19;;;;;;;8.02;3.90;;;18.40;54.40;;;;;;5073665;28;20553;-82
2023/06/07 06:41:45;;;;;;;5.90;3.83;;;18.40;54.20;;;;;;5073768;28;20036;-81
2023/06/07 06:44:11;;;;;;;9.35;4.28;;;18.20;55.50;;;;;;5072441;28;20377;-82
2023/06/07 06:46:36;;;;;;;21.17;5.22;;;18.30;56.50;;;;;;5073553;28;20056;-74
2023/06/07 06:49:02;;;;;;;7.82;4.20;;;18.20;56.30;;;;;;5073901;28;20052;-80
2023/06/07 06:51:28;;;;;;;6.05;3.20;;;18.40;56.00;;;;;;5073659;28;20028;-82
2023/06/07 06:53:53;;;;;;;5.43;3.25;;;18.50;55.40;;;;;;5073735;28;20020;-83
2023/06/07 06:56:19;;;;;;;5.95;3.40;;;18.50;55.30;;;;;;5073639;28;20830;-84
2023/06/07 06:58:46;;;;;;;4.90;3.40;;;18.60;55.00;;;;;;5073462;28;20102;-86
2023/06/07 07:01:16;;;;;;;6.35;3.35;;;18.40;55.30;;;;;;5073717;28;20025;-86
2023/06/07 07:03:42;;;;;;;29.65;7.43;;;18.50;55.80;;;;;;5074064;28;20028;-85
2023/06/07 07:06:08;;;;;;;5.50;3.40;;;18.70;54.60;;;;;;5073380;28;20040;-85
2023/06/07 07:08:35;;;;;;;17.23;3.90;;;18.60;54.30;;;;;;5073468;28;20566;-70
2023/06/07 07:11:00;;;;;;;9.55;3.60;;;18.70;60.70;;;;;;5073469;28;20033;-69
2023/06/07 07:13:26;;;;;;;6.65;2.97;;;19.20;58.80;;;;;;5073443;28;20413;-70
2023/06/07 07:15:52;;;;;;;6.47;2.97;;;19.40;55.20;;;;;;5073359;28;20025;-70
2023/06/07 07:18:17;;;;;;;3.15;2.80;;;19.70;53.40;;;;;;5073242;28;20459;-70
2023/06/07 07:20:43;;;;;;;9.13;3.35;;;20.00;52.40;;;;;;5071907;28;20050;-72
2023/06/07 07:23:08;;;;;;;9.30;3.33;;;20.10;51.30;;;;;;5073562;28;20017;-80
2023/06/07 07:25:34;;;;;;;10.55;3.40;;;20.20;51.20;;;;;;5073208;28;20028;-75
2023/06/07 07:28:00;;;;;;;4.32;3.03;;;20.30;50.50;;;;;;5071882;28;20048;-76
2023/06/07 07:30:26;;;;;;;4.10;3.13;;;20.50;50.30;;;;;;5071756;28;20021;-74
2023/06/07 07:32:52;;;;;;;6.28;3.22;;;20.50;49.90;;;;;;5071699;28;20051;-73
2023/06/07 07:35:18;;;;;;;7.45;3.22;;;20.50;50.30;;;;;;5071497;28;20020;-76
2023/06/07 07:37:44;;;;;;;5.03;2.67;;;20.40;50.50;;;;;;5071480;28;20092;-75
2023/06/07 07:40:12;;;;;;;5.38;3.15;;;20.50;50.40;;;;;;5073013;28;20037;-73
2023/06/07 07:42:38;;;;;;;4.82;2.78;;;20.50;49.00;;;;;;5071452;28;20072;-76
2023/06/07 07:45:05;;;;;;;5.22;3.08;;;20.70;49.20;;;;;;5072897;28;20017;-75
2023/06/07 07:47:30;;;;;;;4.28;2.60;;;20.90;48.80;;;;;;5072882;28;20020;-77
2023/06/07 07:49:56;;;;;;;3.83;3.08;;;21.10;48.40;;;;;;5072986;28;20035;-76
2023/06/07 07:52:22;;;;;;;5.68;2.90;;;21.30;47.30;;;;;;5072902;28;20028;-78
2023/06/07 07:54:47;;;;;;;4.43;2.50;;;21.30;47.10;;;;;;5072625;28;20450;-76
2023/06/07 07:57:13;;;;;;;3.47;2.85;;;21.40;46.70;;;;;;5072712;28;20028;-74
2023/06/07 07:59:39;;;;;;;5.18;2.85;;;21.50;46.60;;;;;;5072623;28;20020;-73
2023/06/07 08:02:05;;;;;;;3.38;2.90;;;21.60;46.70;;;;;;5072556;28;20043;-73
2023/06/07 08:04:30;;;;;;;3.60;2.90;;;21.30;46.00;;;;;;5070709;28;20566;-77
2023/06/07 08:06:56;;;;;;;8.45;2.92;;;21.20;46.00;;;;;;5072757;28;20032;-77
2023/06/07 08:09:22;;;;;;;4.97;2.60;;;21.30;47.00;;;;;;5072541;28;20035;-74
2023/06/07 08:11:48;;;;;;;5.03;3.00;;;21.20;47.00;;;;;;5071181;28;20358;-73
2023/06/07 08:14:14;;;;;;;3.95;2.83;;;21.40;47.40;;;;;;5072727;28;20032;-74
2023/06/07 08:16:40;;;;;;;4.35;2.53;;;21.40;45.70;;;;;;5072588;28;20059;-73
2023/06/07 08:19:07;;;;;;;7.15;2.58;;;21.00;47.20;;;;;;5072402;28;20504;-75
2023/06/07 08:21:33;;;;;;;4.70;3.22;;;21.10;47.20;;;;;;5072431;28;20028;-73
2023/06/07 08:23:59;;;;;;;3.13;2.67;;;21.20;46.90;;;;;;5072277;28;20488;-73
2023/06/07 08:26:25;;;;;;;3.05;2.33;;;21.20;46.70;;;;;;5072154;28;20025;-73
2023/06/07 08:28:50;;;;;;;4.53;2.90;;;21.40;46.90;;;;;;5072152;28;20029;-73
2023/06/07 08:31:17;;;;;;;4.28;2.72;;;21.20;44.90;;;;;;5072186;28;20358;-73
2023/06/07 08:33:43;;;;;;;4.18;2.47;;;21.10;46.40;;;;;;5072052;28;20020;-73
2023/06/07 08:36:09;;;;;;;4.97;2.70;;;21.20;47.00;;;;;;5072180;28;20059;-72
2023/06/07 08:38:38;;;;;;;9.80;2.88;;;21.40;46.40;;;;;;5072175;28;20033;-73
2023/06/07 08:41:04;;;;;;;3.25;2.75;;;21.30;45.80;;;;;;5072101;28;20032;-73
2023/06/07 08:43:29;;;;;;;7.22;3.03;;;21.30;47.00;;;;;;5074339;28;20078;-76
2023/06/07 08:45:56;;;;;;;4.32;2.90;;;21.40;45.70;;;;;;5075515;28;20039;-77
2023/06/07 08:48:22;;;;;;;5.25;2.90;;;21.60;45.10;;;;;;5072286;28;20025;-77
2023/06/07 08:50:50;;;;;;;5.05;2.50;;;21.80;44.80;;;;;;5072265;28;20020;-76
2023/06/07 08:53:25;;;;;;;101.22;10.73;;;22.10;43.60;;;;;;5072934;28;20021;-78
2023/06/07 08:55:51;;;;;;;6.45;3.17;;;22.40;43.10;;;;;;5072274;28;20032;-77
2023/06/07 08:58:17;;;;;;;8.82;3.13;;;22.50;42.60;;;;;;5072095;28;20021;-74
2023/06/07 09:00:43;;;;;;;7.05;3.20;;;22.70;42.80;;;;;;5070683;28;20130;-74
2023/06/07 09:03:11;;;;;;;7.55;2.30;;;22.80;41.10;;;;;;5072224;28;20027;-74
2023/06/07 09:05:37;;;;;;;28.30;3.95;;;22.90;40.80;;;;;;5072171;28;20052;-74
2023/06/07 09:08:03;;;;;;;4.75;2.92;;;23.10;40.50;;;;;;5072081;28;20063;-74
2023/06/07 09:10:29;;;;;;;6.97;2.47;;;23.10;40.00;;;;;;5072021;28;20029;-73
2023/06/07 09:12:55;;;;;;;23.27;3.90;;;23.00;39.70;;;;;;5072024;28;20479;-73
2023/06/07 09:15:21;;;;;;;7.63;2.35;;;23.10;40.00;;;;;;5071963;28;20036;-74
2023/06/07 09:18:03;;;;;;;10.43;2.38;;;23.20;38.90;;;;;;5075181;28;20031;-76
2023/06/07 09:20:31;;;;;;;8.23;2.58;;;23.30;39.00;;;;;;5074256;28;20162;-76
2023/06/07 09:23:04;;;;;;;6.32;2.83;;;23.50;38.40;;;;;;5075547;28;20042;-76
2023/06/07 09:25:30;;;;;;;3.83;2.45;;;23.70;38.30;;;;;;5074095;28;20027;-76
2023/06/07 09:27:56;;;;;;;6.85;3.20;;;23.80;38.10;;;;;;5075332;28;20034;-77
2023/06/07 09:30:23;;;;;;;4.35;2.90;;;23.80;36.40;;;;;;5075297;28;20386;-77
2023/06/07 09:32:49;;;;;;;7.57;2.70;;;23.60;37.30;;;;;;5075479;28;20036;-77
2023/06/07 09:35:18;;;;;;;4.05;2.45;;;23.60;37.50;;;;;;5077008;28;20017;-78
2023/06/07 09:37:50;;;;;;;4.13;2.80;;;23.80;37.30;;;;;;5084098;28;20021;-75
2023/06/07 09:40:16;;;;;;;5.22;3.15;;;24.00;37.40;;;;;;5086589;28;20384;-78
2023/06/07 09:42:43;;;;;;;8.70;3.20;;;24.10;36.30;;;;;;5095221;28;20031;-77
2023/06/07 09:45:18;;;;;;;3.83;2.78;;;23.90;36.00;;;;;;5095401;28;20024;-78
2023/06/07 09:47:43;;;;;;;5.20;2.97;;;23.70;36.20;;;;;;5093692;28;20385;-78
2023/06/07 09:50:11;;;;;;;6.82;2.78;;;23.50;36.50;;;;;;5095055;28;20038;-77
2023/06/07 09:52:37;;;;;;;4.10;2.85;;;23.30;37.10;;;;;;5088463;28;20024;-78
2023/06/07 09:55:06;;;;;;;5.43;2.75;;;23.30;37.60;;;;;;5075036;28;20025;-82
2023/06/07 09:57:33;;;;;;;4.22;2.83;;;23.50;36.70;;;;;;5074910;28;20020;-79
2023/06/07 10:00:08;;;;;;;5.32;2.83;;;23.60;36.40;;;;;;5074960;28;20096;-71
2023/06/07 10:02:34;;;;;;;8.20;2.80;;;23.70;36.60;;;;;;5074582;28;20431;-80
2023/06/07 10:05:00;;;;;;;4.88;3.03;;;23.80;35.10;;;;;;5074583;28;20322;-79
2023/06/07 10:07:47;;;;;;;6.90;3.17;;;23.70;35.40;;;;;;5073883;28;20475;-80
2023/06/07 10:10:15;;;;;;;5.88;3.55;;;23.60;35.40;;;;;;5073898;28;20473;-79
2023/06/07 10:12:44;;;;;;;6.93;3.28;;;23.60;35.60;;;;;;5074336;28;20112;-72
2023/06/07 10:15:13;;;;;;;6.38;2.90;;;23.70;34.80;;;;;;5074218;28;20397;-78
2023/06/07 10:17:57;;;;;;;12.90;3.33;;;23.70;34.50;;;;;;5073669;28;20035;-75
2023/06/07 10:20:35;;;;;;;6.72;3.03;;;23.50;34.40;;;;;;5073684;28;20069;-71
2023/06/07 10:23:18;;;;;;;8.32;2.97;;;23.70;34.90;;;;;;5072764;28;20031;-77
2023/06/07 10:25:58;;;;;;;5.22;3.03;;;24.00;33.70;;;;;;5073808;28;20027;-72
2023/06/07 10:28:39;;;;;;;3.75;3.22;;;24.00;33.10;;;;;;5073695;28;20131;-73
2023/06/07 10:31:10;;;;;;;5.50;3.47;;;23.90;32.80;;;;;;5073840;28;20528;-74
2023/06/07 10:33:37;;;;;;;6.60;2.90;;;24.10;33.00;;;;;;5073969;28;20115;-77
2023/06/07 10:36:08;;;;;;;4.15;2.50;;;24.20;32.20;;;;;;5072811;28;20050;-73
2023/06/07 10:38:34;;;;;;;5.13;2.97;;;24.50;32.10;;;;;;5073847;28;20163;-77
2023/06/07 10:41:03;;;;;;;5.45;2.50;;;24.70;31.40;;;;;;5072686;28;20116;-74
2023/06/07 10:43:30;;;;;;;6.60;3.10;;;24.80;31.40;;;;;;5058617;28;20028;-76
2023/06/07 10:46:20;;;;;;;5.43;2.92;;;25.10;30.30;;;;;;5072428;28;20025;-73
2023/06/07 10:48:46;;;;;;;6.53;2.92;;;25.40;29.90;;;;;;5061342;28;20052;-83
2023/06/07 10:51:12;;;;;;;5.63;2.85;;;25.70;30.20;;;;;;5074759;28;20035;-81
2023/06/07 10:53:56;;;;;;;4.13;2.50;;;25.90;27.30;;;;;;5073628;28;20104;-79
2023/06/07 10:56:36;;;;;;;9.70;3.00;;;25.70;27.80;;;;;;5075289;28;20468;-78
2023/06/07 10:59:14;;;;;;;3.65;2.75;;;25.80;26.40;;;;;;5075138;28;20029;-84
2023/06/07 11:01:40;;;;;;;5.28;2.38;;;25.80;26.90;;;;;;5073064;28;20046;-78
2023/06/07 11:04:06;;;;;;;3.97;2.75;;;26.00;26.60;;;;;;5073194;28;20025;-79
2023/06/07 11:06:35;;;;;;;3.53;2.72;;;26.20;27.90;;;;;;5073178;28;20457;-76
2023/06/07 11:09:22;;;;;;;7.30;3.28;;;26.40;26.20;;;;;;5073444;28;20433;-79
2023/06/07 11:11:47;;;;;;;8.20;3.30;;;26.60;23.60;;;;;;5073217;28;20106;-80
2023/06/07 11:14:13;;;;;;;4.68;3.33;;;26.70;23.90;;;;;;5072859;28;20029;-80
2023/06/07 11:16:40;;;;;;;5.30;3.00;;;26.70;23.30;;;;;;5073061;28;20050;-80
2023/06/07 11:19:12;;;;;;;6.75;3.25;;;26.80;24.30;;;;;;5073349;28;20118;-72
2023/06/07 11:22:15;;;;;;;3.08;2.60;;;27.00;24.40;;;;;;5072948;28;20048;-71
2023/06/07 11:24:41;;;;;;;3.13;2.63;;;27.20;22.30;;;;;;5072824;28;20029;-71
2023/06/07 11:27:10;;;;;;;4.70;2.92;;;27.20;21.40;;;;;;5072892;28;20025;-76
2023/06/07 11:29:37;;;;;;;6.45;3.13;;;27.30;22.10;;;;;;5072720;28;20109;-74
2023/06/07 11:32:03;;;;;;;7.90;2.85;;;27.10;22.60;;;;;;5070928;28;20056;-75
2023/06/07 11:34:33;;;;;;;7.70;3.28;;;26.70;23.30;;;;;;5070463;28;20503;-71
2023/06/07 11:37:16;;;;;;;6.20;3.55;;;26.60;22.60;;;;;;5071134;28;20016;-72
2023/06/07 11:39:43;;;;;;;4.85;3.47;;;26.70;21.60;;;;;;5070570;28;20058;-72
2023/06/07 11:42:08;;;;;;;3.35;2.97;;;26.70;21.30;;;;;;5072622;28;20187;-72
2023/06/07 11:44:34;;;;;;;5.07;3.40;;;26.80;21.50;;;;;;5072633;28;20487;-72
2023/06/07 11:47:05;;;;;;;4.75;3.40;;;27.00;21.30;;;;;;5072602;28;20025;-72
2023/06/07 11:49:35;;;;;;;4.18;2.90;;;27.10;21.30;;;;;;5072282;28;20031;-71
2023/06/07 11:52:01;;;;;;;5.03;3.08;;;27.20;20.10;;;;;;5072488;28;20047;-71
2023/06/07 11:54:26;;;;;;;5.43;3.10;;;26.90;20.10;;;;;;5072570;28;20028;-70
2023/06/07 11:56:53;;;;;;;5.82;3.15;;;27.00;19.90;;;;;;5072517;28;20025;-71
2023/06/07 11:59:21;;;;;;;7.72;3.45;;;26.70;19.70;;;;;;5072658;28;20381;-71
2023/06/07 12:01:51;;;;;;;6.45;3.88;;;27.00;21.20;;;;;;5072247;28;20033;-72
2023/06/07 12:04:18;;;;;;;15.77;4.25;;;27.20;22.30;;;;;;5071943;28;20067;-72
2023/06/07 12:06:46;;;;;;;6.97;3.83;;;27.60;21.90;;;;;;5072487;28;20029;-72
2023/06/07 12:09:12;;;;;;;8.65;3.85;;;27.80;19.30;;;;;;5072187;28;20477;-72
2023/06/07 12:11:38;;;;;;;9.52;3.53;;;28.00;19.80;;;;;;5072233;28;20043;-72
2023/06/07 12:14:05;;;;;;;5.57;2.97;;;28.30;19.90;;;;;;5072400;28;20099;-72
2023/06/07 12:16:31;;;;;;;7.78;3.38;;;28.40;18.70;;;;;;5072775;28;20033;-74
2023/06/07 12:18:57;;;;;;;13.68;4.45;;;28.40;19.60;;;;;;5073340;28;20086;-73
2023/06/07 12:21:23;;;;;;;5.57;3.42;;;28.60;19.70;;;;;;5072209;28;20068;-73
2023/06/07 12:23:51;;;;;;;8.35;3.55;;;28.80;18.70;;;;;;5072465;28;20032;-72
2023/06/07 12:26:19;;;;;;;14.88;3.50;;;29.00;20.00;;;;;;5072334;28;20070;-73
2023/06/07 12:28:48;;;;;;;14.18;3.97;;;29.00;19.20;;;;;;5072172;28;20093;-72
2023/06/07 12:31:21;;;;;;;7.88;3.50;;;29.20;19.10;;;;;;5072483;28;20081;-78
2023/06/07 12:34:06;;;;;;;15.65;4.47;;;29.30;18.60;;;;;;5072787;28;20032;-74
2023/06/07 12:36:33;;;;;;;8.20;3.33;;;29.30;19.00;;;;;;5072797;28;20056;-71
2023/06/07 12:39:08;;;;;;;11.13;4.38;;;29.40;17.70;;;;;;5082630;28;20048;-73
2023/06/07 12:41:34;;;;;;;;;;;29.60;17.50;;;;;;5087939;28;20037;-74
2023/06/07 12:44:02;;;;;;;22.27;3.85;;;29.50;17.20;;;;;;5084543;28;19915;-76
2023/06/07 12:46:29;;;;;;;40.85;6.47;;;29.50;17.50;;;;;;5083673;28;20028;-78